createdAt,value
2018-09-21T00:00:42.197Z,0
2018-09-21T00:01:42.776Z,0
2018-09-21T00:02:43.368Z,0
2018-09-21T00:03:43.948Z,0
2018-09-21T00:04:44.525Z,0
2018-09-21T00:05:45.101Z,0
2018-09-21T00:06:45.684Z,0
2018-09-21T00:07:46.260Z,0
2018-09-21T00:08:46.838Z,0
2018-09-21T00:09:47.415Z,0
2018-09-21T00:10:47.994Z,0
2018-09-21T00:11:48.574Z,0
2018-09-21T00:12:49.152Z,0
2018-09-21T00:13:49.729Z,0
2018-09-21T00:14:50.307Z,0
2018-09-21T00:15:50.887Z,0
2018-09-21T00:16:51.478Z,0
2018-09-21T00:17:52.104Z,0
2018-09-21T00:18:52.634Z,0
2018-09-21T00:19:53.212Z,0
2018-09-21T00:20:53.789Z,0
2018-09-21T00:21:54.368Z,0
2018-09-21T00:22:54.958Z,0
2018-09-21T00:23:55.538Z,0
2018-09-21T00:24:56.116Z,0
2018-09-21T00:25:56.694Z,0
2018-09-21T00:26:57.272Z,0
2018-09-21T00:27:57.864Z,0
2018-09-21T00:28:58.443Z,0
2018-09-21T00:29:59.033Z,0
2018-09-21T00:30:59.612Z,0
2018-09-21T00:32:00.190Z,0
2018-09-21T00:33:00.770Z,0
2018-09-21T00:34:01.349Z,0
2018-09-21T00:35:01.939Z,0
2018-09-21T00:36:02.519Z,0
2018-09-21T00:37:03.096Z,0
2018-09-21T00:38:03.675Z,0
2018-09-21T00:39:04.254Z,0
2018-09-21T00:40:04.832Z,0
2018-09-21T00:41:05.410Z,0
2018-09-21T00:42:05.989Z,0
2018-09-21T00:43:06.568Z,0
2018-09-21T00:44:07.145Z,0
2018-09-21T00:45:07.723Z,0
2018-09-21T00:46:08.302Z,0
2018-09-21T00:47:08.881Z,0
2018-09-21T00:48:09.458Z,0
2018-09-21T00:49:10.035Z,0
2018-09-21T00:50:10.627Z,0
2018-09-21T00:51:11.204Z,0
2018-09-21T00:52:11.833Z,0
2018-09-21T00:53:12.409Z,0
2018-09-21T00:54:13.002Z,0
2018-09-21T00:55:13.597Z,0
2018-09-21T00:56:14.173Z,0
2018-09-21T00:57:14.750Z,0
2018-09-21T00:58:15.328Z,0
2018-09-21T00:59:15.906Z,0
2018-09-21T01:00:16.485Z,0
2018-09-21T01:01:17.061Z,0
2018-09-21T01:02:17.638Z,0
2018-09-21T01:03:18.218Z,0
2018-09-21T01:04:18.796Z,0
2018-09-21T01:05:19.374Z,0
2018-09-21T01:06:19.952Z,0
2018-09-21T01:07:20.533Z,0
2018-09-21T01:08:21.123Z,0
2018-09-21T01:09:21.702Z,0
2018-09-21T01:10:22.280Z,0
2018-09-21T01:11:22.857Z,0
2018-09-21T01:12:23.435Z,0
2018-09-21T01:13:24.013Z,0
2018-09-21T01:14:24.592Z,0
2018-09-21T01:15:25.169Z,0
2018-09-21T01:16:25.747Z,0
2018-09-21T01:17:26.327Z,0
2018-09-21T01:18:26.903Z,0
2018-09-21T01:19:27.481Z,0
2018-09-21T01:20:28.058Z,0
2018-09-21T01:21:28.649Z,0
2018-09-21T01:22:29.226Z,0
2018-09-21T01:23:29.802Z,0
2018-09-21T01:24:30.380Z,0
2018-09-21T01:25:30.970Z,0
2018-09-21T01:26:31.550Z,0
2018-09-21T01:27:32.129Z,0
2018-09-21T01:28:32.703Z,0
2018-09-21T01:29:33.281Z,0
2018-09-21T01:30:33.859Z,0
2018-09-21T01:31:34.437Z,0
2018-09-21T01:32:35.030Z,0
2018-09-21T01:33:35.608Z,0
2018-09-21T01:34:36.186Z,0
2018-09-21T01:35:36.763Z,0
2018-09-21T01:36:37.341Z,0
2018-09-21T01:37:37.920Z,0
2018-09-21T01:38:38.497Z,0
2018-09-21T01:39:39.075Z,0
2018-09-21T01:40:39.652Z,0
2018-09-21T01:41:40.230Z,0
2018-09-21T01:42:40.808Z,0
2018-09-21T01:43:41.401Z,0
2018-09-21T01:44:41.979Z,0
2018-09-21T01:45:42.556Z,0
2018-09-21T01:46:43.134Z,0
2018-09-21T01:47:43.724Z,0
2018-09-21T01:48:44.301Z,0
2018-09-21T01:49:44.881Z,0
2018-09-21T01:50:45.457Z,0
2018-09-21T01:51:46.037Z,0
2018-09-21T01:52:46.612Z,0
2018-09-21T01:53:47.189Z,0
2018-09-21T01:54:47.768Z,0
2018-09-21T01:55:48.369Z,0
2018-09-21T01:56:48.939Z,0
2018-09-21T01:57:49.531Z,0
2018-09-21T01:58:50.110Z,0
2018-09-21T01:59:50.687Z,0
2018-09-21T02:00:51.265Z,0
2018-09-21T02:01:51.842Z,0
2018-09-21T02:02:52.420Z,0
2018-09-21T02:03:52.999Z,0
2018-09-21T02:04:53.575Z,0
2018-09-21T02:05:54.154Z,0
2018-09-21T02:06:54.734Z,0
2018-09-21T02:07:55.311Z,0
2018-09-21T02:08:55.888Z,0
2018-09-21T02:09:56.480Z,0
2018-09-21T02:10:57.056Z,0
2018-09-21T02:11:57.633Z,0
2018-09-21T02:12:58.212Z,0
2018-09-21T02:13:58.789Z,0
2018-09-21T02:14:59.367Z,0
2018-09-21T02:15:59.958Z,0
2018-09-21T02:17:00.537Z,0
2018-09-21T02:18:01.130Z,0
2018-09-21T02:19:01.695Z,0
2018-09-21T02:20:02.287Z,0
2018-09-21T02:21:02.865Z,0
2018-09-21T02:22:03.441Z,0
2018-09-21T02:23:04.019Z,0
2018-09-21T02:24:04.597Z,0
2018-09-21T02:25:05.180Z,0
2018-09-21T02:26:05.753Z,0
2018-09-21T02:27:06.329Z,0
2018-09-21T02:28:06.906Z,0
2018-09-21T02:29:07.484Z,0
2018-09-21T02:30:08.063Z,0
2018-09-21T02:31:08.640Z,0
2018-09-21T02:32:09.218Z,0
2018-09-21T02:33:09.845Z,0
2018-09-21T02:34:10.423Z,0
2018-09-21T02:35:10.999Z,0
2018-09-21T02:36:11.589Z,0
2018-09-21T02:37:12.169Z,0
2018-09-21T02:38:12.743Z,0
2018-09-21T02:39:13.322Z,0
2018-09-21T02:40:13.898Z,0
2018-09-21T02:41:14.484Z,0
2018-09-21T02:42:15.067Z,0
2018-09-21T02:43:15.644Z,0
2018-09-21T02:44:16.222Z,0
2018-09-21T02:45:16.802Z,0
2018-09-21T02:46:17.382Z,0
2018-09-21T02:47:17.968Z,0
2018-09-21T02:48:18.546Z,0
2018-09-21T02:49:19.122Z,0
2018-09-21T02:50:19.701Z,0
2018-09-21T02:51:20.277Z,0
2018-09-21T02:52:20.854Z,0
2018-09-21T02:53:21.445Z,0
2018-09-21T02:54:22.035Z,0
2018-09-21T02:55:22.611Z,0
2018-09-21T02:56:23.186Z,0
2018-09-21T02:57:23.764Z,0
2018-09-21T02:58:24.340Z,0
2018-09-21T02:59:24.918Z,0
2018-09-21T03:00:25.540Z,0
2018-09-21T03:01:26.086Z,0
2018-09-21T03:02:26.662Z,0
2018-09-21T03:03:27.239Z,0
2018-09-21T03:04:27.836Z,0
2018-09-21T03:05:28.409Z,0
2018-09-21T03:06:28.988Z,0
2018-09-21T03:07:29.575Z,0
2018-09-21T03:08:30.153Z,0
2018-09-21T03:09:30.732Z,0
2018-09-21T03:10:31.308Z,0
2018-09-21T03:11:31.899Z,0
2018-09-21T03:12:32.477Z,0
2018-09-21T03:13:33.055Z,0
2018-09-21T03:14:33.630Z,0
2018-09-21T03:15:34.210Z,0
2018-09-21T03:16:34.786Z,0
2018-09-21T03:17:35.363Z,0
2018-09-21T03:18:35.942Z,0
2018-09-21T03:19:36.517Z,0
2018-09-21T03:20:37.096Z,0
2018-09-21T03:21:37.670Z,0
2018-09-21T03:22:38.248Z,0
2018-09-21T03:23:38.825Z,0
2018-09-21T03:24:39.401Z,0
2018-09-21T03:25:39.980Z,0
2018-09-21T03:26:40.556Z,0
2018-09-21T03:27:41.133Z,0
2018-09-21T03:28:41.710Z,0
2018-09-21T03:29:42.299Z,0
2018-09-21T03:30:42.874Z,0
2018-09-21T03:31:43.451Z,0
2018-09-21T03:32:44.026Z,0
2018-09-21T03:33:44.615Z,0
2018-09-21T03:34:45.191Z,0
2018-09-21T03:35:45.768Z,0
2018-09-21T03:36:46.348Z,0
2018-09-21T03:37:46.923Z,0
2018-09-21T03:38:47.501Z,0
2018-09-21T03:39:48.075Z,0
2018-09-21T03:40:48.652Z,0
2018-09-21T03:41:49.242Z,0
2018-09-21T03:42:49.833Z,0
2018-09-21T03:43:50.409Z,0
2018-09-21T03:44:50.990Z,0
2018-09-21T03:45:51.565Z,0
2018-09-21T03:46:52.144Z,0
2018-09-21T03:47:52.722Z,0
2018-09-21T03:48:53.299Z,0
2018-09-21T03:49:53.877Z,0
2018-09-21T03:50:54.455Z,0
2018-09-21T03:51:55.045Z,0
2018-09-21T03:52:55.687Z,0
2018-09-21T03:53:56.213Z,0
2018-09-21T03:54:56.792Z,0
2018-09-21T03:55:57.370Z,0
2018-09-21T03:56:57.961Z,0
2018-09-21T03:57:58.538Z,0
2018-09-21T03:58:59.113Z,0
2018-09-21T03:59:59.691Z,0
2018-09-21T04:01:00.273Z,0
2018-09-21T04:02:00.858Z,0
2018-09-21T04:03:01.438Z,0
2018-09-21T04:04:02.014Z,0
2018-09-21T04:05:02.591Z,0
2018-09-21T04:06:03.168Z,0
2018-09-21T04:07:03.747Z,0
2018-09-21T04:08:04.324Z,0
2018-09-21T04:09:04.902Z,0
2018-09-21T04:10:05.479Z,0
2018-09-21T04:11:06.070Z,0
2018-09-21T04:12:06.647Z,0
2018-09-21T04:13:07.225Z,0
2018-09-21T04:14:07.818Z,0
2018-09-21T04:15:08.381Z,0
2018-09-21T04:16:08.958Z,0
2018-09-21T04:17:09.552Z,0
2018-09-21T04:18:10.110Z,0
2018-09-21T04:19:10.701Z,0
2018-09-21T04:20:11.278Z,0
2018-09-21T04:21:11.857Z,0
2018-09-21T04:22:12.434Z,0
2018-09-21T04:23:13.099Z,0
2018-09-21T04:24:13.605Z,0
2018-09-21T04:25:14.198Z,0
2018-09-21T04:26:14.775Z,0
2018-09-21T04:27:15.368Z,0
2018-09-21T04:28:15.958Z,0
2018-09-21T04:29:16.539Z,0
2018-09-21T04:30:17.127Z,0
2018-09-21T04:31:17.703Z,0
2018-09-21T04:32:18.284Z,0
2018-09-21T04:33:18.863Z,0
2018-09-21T04:34:19.954Z,0
2018-09-21T04:35:20.532Z,0
2018-09-21T04:36:21.109Z,0
2018-09-21T04:37:21.687Z,0
2018-09-21T04:38:22.266Z,0
2018-09-21T04:39:22.844Z,0
2018-09-21T04:40:23.419Z,0
2018-09-21T04:41:23.997Z,0
2018-09-21T04:42:24.579Z,0
2018-09-21T04:43:25.153Z,0
2018-09-21T04:44:25.735Z,0
2018-09-21T04:45:26.323Z,0
2018-09-21T04:46:26.900Z,0
2018-09-21T04:47:27.477Z,0
2018-09-21T04:48:28.054Z,0
2018-09-21T04:49:28.633Z,0
2018-09-21T04:50:29.211Z,0
2018-09-21T04:51:29.788Z,0
2018-09-21T04:52:30.383Z,0
2018-09-21T04:53:30.993Z,0
2018-09-21T04:54:31.521Z,0
2018-09-21T04:55:32.099Z,0
2018-09-21T04:56:32.676Z,0
2018-09-21T04:57:33.267Z,0
2018-09-21T04:58:33.844Z,0
2018-09-21T04:59:34.442Z,0
2018-09-21T05:00:35.028Z,0
2018-09-21T05:01:35.605Z,0
2018-09-21T05:02:36.198Z,4
2018-09-21T05:03:36.773Z,0
2018-09-21T05:04:37.350Z,0
2018-09-21T05:05:37.930Z,4
2018-09-21T05:06:38.506Z,0
2018-09-21T05:07:39.085Z,4
2018-09-21T05:08:39.661Z,4
2018-09-21T05:09:40.240Z,4
2018-09-21T05:10:40.823Z,0
2018-09-21T05:11:41.415Z,4
2018-09-21T05:12:41.990Z,4
2018-09-21T05:13:42.629Z,4
2018-09-21T05:14:43.147Z,4
2018-09-21T05:15:43.736Z,4
2018-09-21T05:16:44.313Z,4
2018-09-21T05:17:44.890Z,4
2018-09-21T05:18:45.468Z,4
2018-09-21T05:19:46.104Z,8
2018-09-21T05:20:46.625Z,8
2018-09-21T05:21:47.216Z,8
2018-09-21T05:22:47.794Z,8
2018-09-21T05:23:48.372Z,8
2018-09-21T05:24:48.954Z,8
2018-09-21T05:25:49.541Z,12
2018-09-21T05:26:50.120Z,8
2018-09-21T05:27:50.711Z,12
2018-09-21T05:28:51.291Z,16
2018-09-21T05:29:51.869Z,16
2018-09-21T05:30:52.446Z,16
2018-09-21T05:31:53.023Z,16
2018-09-21T05:32:53.603Z,16
2018-09-21T05:33:54.211Z,16
2018-09-21T05:34:54.763Z,20
2018-09-21T05:35:55.354Z,20
2018-09-21T05:36:55.945Z,20
2018-09-21T05:37:56.524Z,24
2018-09-21T05:38:57.100Z,28
2018-09-21T05:39:57.680Z,28
2018-09-21T05:40:58.258Z,28
2018-09-21T05:41:58.839Z,32
2018-09-21T05:42:59.429Z,28
2018-09-21T05:44:00.008Z,32
2018-09-21T05:45:00.588Z,32
2018-09-21T05:46:01.167Z,36
2018-09-21T05:47:01.783Z,36
2018-09-21T05:48:02.323Z,36
2018-09-21T05:49:02.901Z,36
2018-09-21T05:50:03.487Z,36
2018-09-21T05:51:04.073Z,40
2018-09-21T05:52:04.653Z,40
2018-09-21T05:53:05.231Z,40
2018-09-21T05:54:05.809Z,44
2018-09-21T05:55:06.389Z,52
2018-09-21T05:56:07.005Z,52
2018-09-21T05:57:07.549Z,56
2018-09-21T05:58:08.125Z,56
2018-09-21T05:59:08.704Z,52
2018-09-21T06:00:09.288Z,52
2018-09-21T06:01:09.864Z,52
2018-09-21T06:02:10.489Z,52
2018-09-21T06:03:11.023Z,56
2018-09-21T06:04:11.600Z,56
2018-09-21T06:05:12.179Z,56
2018-09-21T06:06:12.757Z,60
2018-09-21T06:07:13.352Z,60
2018-09-21T06:08:13.931Z,60
2018-09-21T06:09:14.523Z,64
2018-09-21T06:10:15.104Z,64
2018-09-21T06:11:15.684Z,72
2018-09-21T06:12:16.261Z,76
2018-09-21T06:13:16.842Z,80
2018-09-21T06:14:17.422Z,84
2018-09-21T06:15:17.998Z,88
2018-09-21T06:16:18.576Z,92
2018-09-21T06:17:19.154Z,92
2018-09-21T06:18:19.734Z,96
2018-09-21T06:19:20.334Z,96
2018-09-21T06:20:20.891Z,96
2018-09-21T06:21:21.469Z,96
2018-09-21T06:22:22.047Z,96
2018-09-21T06:23:22.629Z,100
2018-09-21T06:24:23.207Z,100
2018-09-21T06:25:23.788Z,100
2018-09-21T06:26:24.374Z,108
2018-09-21T06:27:24.959Z,108
2018-09-21T06:28:25.552Z,108
2018-09-21T06:29:26.147Z,112
2018-09-21T06:30:26.727Z,112
2018-09-21T06:31:27.306Z,112
2018-09-21T06:32:27.885Z,112
2018-09-21T06:33:28.467Z,116
2018-09-21T06:34:29.046Z,116
2018-09-21T06:35:29.629Z,120
2018-09-21T06:36:30.222Z,124
2018-09-21T06:37:30.802Z,132
2018-09-21T06:38:31.384Z,136
2018-09-21T06:39:31.978Z,140
2018-09-21T06:40:32.557Z,144
2018-09-21T06:41:33.136Z,156
2018-09-21T06:42:33.718Z,172
2018-09-21T06:43:34.309Z,180
2018-09-21T06:44:34.890Z,188
2018-09-21T06:45:37.622Z,192
2018-09-21T06:46:38.204Z,192
2018-09-21T06:47:38.797Z,188
2018-09-21T06:48:39.378Z,188
2018-09-21T06:49:39.957Z,188
2018-09-21T06:50:40.550Z,176
2018-09-21T06:51:41.130Z,160
2018-09-21T06:52:41.711Z,144
2018-09-21T06:53:42.291Z,128
2018-09-21T06:54:42.872Z,120
2018-09-21T06:55:43.455Z,112
2018-09-21T06:56:44.034Z,108
2018-09-21T06:57:44.613Z,104
2018-09-21T06:58:45.192Z,104
2018-09-21T06:59:45.772Z,104
2018-09-21T07:00:46.358Z,108
2018-09-21T07:01:47.009Z,104
2018-09-21T07:02:47.522Z,108
2018-09-21T07:03:48.111Z,108
2018-09-21T07:04:48.692Z,116
2018-09-21T07:05:49.271Z,116
2018-09-21T07:06:49.855Z,112
2018-09-21T07:07:50.433Z,108
2018-09-21T07:08:51.014Z,104
2018-09-21T07:09:51.597Z,100
2018-09-21T07:10:52.175Z,92
2018-09-21T07:11:52.757Z,92
2018-09-21T07:12:53.333Z,92
2018-09-21T07:13:53.913Z,92
2018-09-21T07:14:54.508Z,100
2018-09-21T07:15:55.133Z,108
2018-09-21T07:16:55.667Z,124
2018-09-21T07:17:56.263Z,136
2018-09-21T07:18:56.838Z,140
2018-09-21T07:19:57.419Z,144
2018-09-21T07:20:58.000Z,152
2018-09-21T07:21:58.579Z,160
2018-09-21T07:22:59.165Z,164
2018-09-21T07:23:59.756Z,172
2018-09-21T07:25:00.337Z,176
2018-09-21T07:26:00.917Z,184
2018-09-21T07:27:01.497Z,196
2018-09-21T07:28:02.078Z,204
2018-09-21T07:29:02.676Z,208
2018-09-21T07:30:03.237Z,216
2018-09-21T07:31:03.822Z,224
2018-09-21T07:32:04.401Z,236
2018-09-21T07:33:04.994Z,256
2018-09-21T07:34:05.576Z,276
2018-09-21T07:35:06.159Z,300
2018-09-21T07:36:06.739Z,320
2018-09-21T07:37:07.320Z,340
2018-09-21T07:38:07.902Z,344
2018-09-21T07:39:08.482Z,340
2018-09-21T07:40:09.065Z,312
2018-09-21T07:41:09.646Z,280
2018-09-21T07:42:10.228Z,252
2018-09-21T07:43:10.807Z,232
2018-09-21T07:44:11.388Z,216
2018-09-21T07:45:11.967Z,204
2018-09-21T07:46:12.546Z,204
2018-09-21T07:47:13.128Z,208
2018-09-21T07:48:13.707Z,204
2018-09-21T07:49:14.287Z,204
2018-09-21T07:50:14.868Z,200
2018-09-21T07:51:15.447Z,192
2018-09-21T07:52:16.031Z,184
2018-09-21T07:53:16.647Z,180
2018-09-21T07:54:17.213Z,180
2018-09-21T07:55:17.780Z,188
2018-09-21T07:56:18.360Z,200
2018-09-21T07:57:18.953Z,212
2018-09-21T07:58:19.549Z,224
2018-09-21T07:59:20.130Z,244
2018-09-21T08:00:20.710Z,264
2018-09-21T08:01:21.291Z,284
2018-09-21T08:02:21.871Z,304
2018-09-21T08:03:22.452Z,320
2018-09-21T08:04:23.035Z,328
2018-09-21T08:05:23.627Z,332
2018-09-21T08:06:24.208Z,336
2018-09-21T08:07:24.789Z,344
2018-09-21T08:08:25.383Z,348
2018-09-21T08:09:25.965Z,356
2018-09-21T08:10:26.550Z,368
2018-09-21T08:11:27.142Z,380
2018-09-21T08:12:27.725Z,396
2018-09-21T08:13:28.314Z,412
2018-09-21T08:14:28.898Z,412
2018-09-21T08:15:29.479Z,420
2018-09-21T08:16:30.059Z,420
2018-09-21T08:17:30.639Z,416
2018-09-21T08:18:31.219Z,420
2018-09-21T08:19:31.809Z,424
2018-09-21T08:20:32.385Z,432
2018-09-21T08:21:32.960Z,424
2018-09-21T08:22:33.545Z,404
2018-09-21T08:23:34.136Z,372
2018-09-21T08:24:34.719Z,356
2018-09-21T08:25:35.297Z,320
2018-09-21T08:26:36.018Z,280
2018-09-21T08:27:36.558Z,292
2018-09-21T08:28:37.139Z,296
2018-09-21T08:29:37.720Z,288
2018-09-21T08:30:38.301Z,308
2018-09-21T08:31:38.882Z,320
2018-09-21T08:32:39.462Z,316
2018-09-21T08:33:40.044Z,356
2018-09-21T08:34:40.638Z,388
2018-09-21T08:35:41.206Z,376
2018-09-21T08:36:41.788Z,312
2018-09-21T08:37:42.370Z,300
2018-09-21T08:38:42.953Z,264
2018-09-21T08:39:43.535Z,200
2018-09-21T08:40:44.127Z,116
2018-09-21T08:41:44.716Z,104
2018-09-21T08:42:45.299Z,92
2018-09-21T08:43:45.880Z,76
2018-09-21T08:44:46.471Z,92
2018-09-21T08:45:47.052Z,84
2018-09-21T08:46:47.632Z,92
2018-09-21T08:47:48.210Z,92
2018-09-21T08:48:48.856Z,84
2018-09-21T08:49:49.385Z,76
2018-09-21T08:50:49.961Z,76
2018-09-21T08:51:50.542Z,84
2018-09-21T08:52:51.122Z,100
2018-09-21T08:53:51.703Z,100
2018-09-21T08:54:52.300Z,104
2018-09-21T08:55:52.877Z,100
2018-09-21T08:56:53.507Z,84
2018-09-21T08:57:54.098Z,72
2018-09-21T08:58:54.682Z,56
2018-09-21T08:59:55.270Z,44
2018-09-21T09:00:55.849Z,24
2018-09-21T09:01:56.425Z,20
2018-09-21T09:02:57.062Z,28
2018-09-21T09:03:57.579Z,48
2018-09-21T09:04:58.159Z,72
2018-09-21T09:05:58.737Z,76
2018-09-21T09:06:59.317Z,72
2018-09-21T09:07:59.894Z,60
2018-09-21T09:09:00.471Z,60
2018-09-21T09:10:01.051Z,52
2018-09-21T09:11:01.627Z,48
2018-09-21T09:12:02.203Z,60
2018-09-21T09:13:02.780Z,68
2018-09-21T09:14:03.371Z,84
2018-09-21T09:15:03.949Z,96
2018-09-21T09:16:04.527Z,96
2018-09-21T09:17:05.103Z,92
2018-09-21T09:18:05.679Z,92
2018-09-21T09:19:06.257Z,100
2018-09-21T09:20:06.835Z,100
2018-09-21T09:21:07.411Z,96
2018-09-21T09:22:07.988Z,108
2018-09-21T09:23:08.582Z,140
2018-09-21T09:24:09.157Z,160
2018-09-21T09:25:09.735Z,184
2018-09-21T09:26:10.311Z,212
2018-09-21T09:27:10.899Z,244
2018-09-21T09:28:11.470Z,292
2018-09-21T09:29:12.047Z,308
2018-09-21T09:30:12.717Z,308
2018-09-21T09:31:13.203Z,332
2018-09-21T09:32:13.780Z,360
2018-09-21T09:33:14.358Z,356
2018-09-21T09:34:14.939Z,316
2018-09-21T09:35:15.530Z,304
2018-09-21T09:36:16.107Z,332
2018-09-21T09:37:16.684Z,348
2018-09-21T09:38:17.262Z,372
2018-09-21T09:39:17.839Z,392
2018-09-21T09:40:18.431Z,416
2018-09-21T09:41:19.009Z,440
2018-09-21T09:42:19.588Z,452
2018-09-21T09:43:20.216Z,448
2018-09-21T09:44:20.745Z,404
2018-09-21T09:45:21.324Z,352
2018-09-21T09:46:21.906Z,300
2018-09-21T09:47:22.482Z,276
2018-09-21T09:48:23.163Z,276
2018-09-21T09:49:23.640Z,288
2018-09-21T09:50:24.218Z,304
2018-09-21T09:51:24.796Z,316
2018-09-21T09:52:25.375Z,328
2018-09-21T09:53:25.968Z,340
2018-09-21T09:54:26.547Z,360
2018-09-21T09:55:27.126Z,380
2018-09-21T09:56:27.706Z,388
2018-09-21T09:57:28.284Z,368
2018-09-21T09:58:28.862Z,324
2018-09-21T09:59:29.441Z,280
2018-09-21T10:00:30.027Z,264
2018-09-21T10:01:30.599Z,252
2018-09-21T10:02:31.177Z,248
2018-09-21T10:03:31.819Z,240
2018-09-21T10:04:32.335Z,244
2018-09-21T10:05:32.941Z,272
2018-09-21T10:06:33.492Z,296
2018-09-21T10:07:34.070Z,308
2018-09-21T10:08:34.650Z,328
2018-09-21T10:09:35.241Z,324
2018-09-21T10:10:35.820Z,308
2018-09-21T10:11:36.398Z,296
2018-09-21T10:12:36.986Z,292
2018-09-21T10:13:37.555Z,316
2018-09-21T10:14:38.131Z,336
2018-09-21T10:15:38.710Z,328
2018-09-21T10:16:39.288Z,312
2018-09-21T10:17:39.880Z,316
2018-09-21T10:18:40.457Z,348
2018-09-21T10:19:41.035Z,392
2018-09-21T10:20:41.673Z,392
2018-09-21T10:21:42.198Z,376
2018-09-21T10:22:42.777Z,352
2018-09-21T10:23:43.368Z,336
2018-09-21T10:24:43.973Z,312
2018-09-21T10:25:44.534Z,288
2018-09-21T10:26:45.161Z,264
2018-09-21T10:27:45.893Z,260
2018-09-21T10:28:46.328Z,260
2018-09-21T10:29:46.848Z,288
2018-09-21T10:30:47.425Z,316
2018-09-21T10:31:48.003Z,348
2018-09-21T10:32:48.582Z,360
2018-09-21T10:33:49.351Z,344
2018-09-21T10:34:49.737Z,328
2018-09-21T10:35:50.320Z,308
2018-09-21T10:36:50.907Z,300
2018-09-21T10:37:51.535Z,304
2018-09-21T10:38:52.114Z,308
2018-09-21T10:39:52.718Z,304
2018-09-21T10:40:53.268Z,292
2018-09-21T10:41:53.851Z,300
2018-09-21T10:42:54.454Z,316
2018-09-21T10:43:55.017Z,336
2018-09-21T10:44:55.594Z,364
2018-09-21T10:45:56.173Z,388
2018-09-21T10:46:56.750Z,432
2018-09-21T10:47:57.328Z,452
2018-09-21T10:48:57.920Z,480
2018-09-21T10:49:58.497Z,520
2018-09-21T10:50:59.076Z,540
2018-09-21T10:51:59.653Z,540
2018-09-21T10:53:00.230Z,576
2018-09-21T10:54:00.810Z,604
2018-09-21T10:55:01.405Z,604
2018-09-21T10:56:01.991Z,616
2018-09-21T10:57:02.570Z,656
2018-09-21T10:58:03.147Z,732
2018-09-21T10:59:03.724Z,684
2018-09-21T11:00:04.301Z,692
2018-09-21T11:01:04.895Z,688
2018-09-21T11:02:05.470Z,732
2018-09-21T11:03:06.048Z,736
2018-09-21T11:04:06.626Z,692
2018-09-21T11:05:07.217Z,652
2018-09-21T11:06:07.795Z,624
2018-09-21T11:07:08.398Z,608
2018-09-21T11:08:08.953Z,596
2018-09-21T11:09:09.531Z,576
2018-09-21T11:10:10.159Z,556
2018-09-21T11:11:10.702Z,540
2018-09-21T11:12:11.278Z,524
2018-09-21T11:13:11.917Z,496
2018-09-21T11:14:12.429Z,504
2018-09-21T11:15:13.007Z,544
2018-09-21T11:16:13.586Z,572
2018-09-21T11:17:14.165Z,608
2018-09-21T11:18:14.743Z,640
2018-09-21T11:19:15.321Z,636
2018-09-21T11:20:15.900Z,636
2018-09-21T11:21:16.483Z,648
2018-09-21T11:22:17.057Z,656
2018-09-21T11:23:17.637Z,672
2018-09-21T11:24:18.215Z,696
2018-09-21T11:25:18.793Z,684
2018-09-21T11:26:19.374Z,660
2018-09-21T11:27:19.951Z,632
2018-09-21T11:28:20.535Z,596
2018-09-21T11:29:21.110Z,548
2018-09-21T11:30:21.687Z,488
2018-09-21T11:31:22.266Z,408
2018-09-21T11:32:22.845Z,372
2018-09-21T11:33:23.475Z,380
2018-09-21T11:34:24.057Z,392
2018-09-21T11:35:24.635Z,328
2018-09-21T11:36:25.216Z,296
2018-09-21T11:37:25.792Z,212
2018-09-21T11:38:26.373Z,172
2018-09-21T11:39:26.949Z,164
2018-09-21T11:40:27.529Z,132
2018-09-21T11:41:28.104Z,120
2018-09-21T11:42:28.695Z,140
2018-09-21T11:43:29.273Z,184
2018-09-21T11:44:29.852Z,276
2018-09-21T11:45:30.431Z,264
2018-09-21T11:46:31.011Z,296
2018-09-21T11:47:31.759Z,300
2018-09-21T11:48:32.182Z,304
2018-09-21T11:49:32.761Z,300
2018-09-21T11:50:33.340Z,280
2018-09-21T11:51:33.919Z,284
2018-09-21T11:52:34.497Z,300
2018-09-21T11:53:35.077Z,328
2018-09-21T11:54:35.655Z,380
2018-09-21T11:55:36.234Z,388
2018-09-21T11:56:36.814Z,336
2018-09-21T11:57:37.392Z,352
2018-09-21T11:58:37.972Z,404
2018-09-21T11:59:38.562Z,456
2018-09-21T12:00:39.141Z,456
2018-09-21T12:01:39.760Z,468
2018-09-21T12:02:40.313Z,492
2018-09-21T12:03:40.921Z,524
2018-09-21T12:04:41.485Z,508
2018-09-21T12:05:42.067Z,516
2018-09-21T12:06:42.644Z,544
2018-09-21T12:07:43.227Z,560
2018-09-21T12:08:43.801Z,548
2018-09-21T12:09:44.380Z,512
2018-09-21T12:10:44.960Z,536
2018-09-21T12:11:45.540Z,560
2018-09-21T12:12:46.130Z,572
2018-09-21T12:13:46.711Z,576
2018-09-21T12:14:47.289Z,568
2018-09-21T12:15:47.869Z,564
2018-09-21T12:16:48.505Z,564
2018-09-21T12:17:49.039Z,556
2018-09-21T12:18:49.618Z,564
2018-09-21T12:19:50.196Z,584
2018-09-21T12:20:50.774Z,600
2018-09-21T12:21:51.366Z,612
2018-09-21T12:22:51.997Z,612
2018-09-21T12:23:52.526Z,632
2018-09-21T12:24:53.101Z,644
2018-09-21T12:25:53.681Z,636
2018-09-21T12:26:54.258Z,632
2018-09-21T12:27:54.850Z,624
2018-09-21T12:28:55.429Z,616
2018-09-21T12:29:56.021Z,616
2018-09-21T12:30:56.601Z,608
2018-09-21T12:31:57.191Z,600
2018-09-21T12:32:57.769Z,588
2018-09-21T12:33:58.360Z,576
2018-09-21T12:34:58.936Z,568
2018-09-21T12:35:59.583Z,556
2018-09-21T12:37:00.095Z,540
2018-09-21T12:38:00.674Z,532
2018-09-21T12:39:01.254Z,544
2018-09-21T12:40:01.832Z,548
2018-09-21T12:41:02.410Z,548
2018-09-21T12:42:02.990Z,548
2018-09-21T12:43:03.569Z,548
2018-09-21T12:44:04.149Z,548
2018-09-21T12:45:04.726Z,560
2018-09-21T12:46:05.302Z,552
2018-09-21T12:47:05.880Z,552
2018-09-21T12:48:06.459Z,560
2018-09-21T12:49:07.038Z,572
2018-09-21T12:50:07.620Z,572
2018-09-21T12:51:08.199Z,608
2018-09-21T12:52:08.778Z,556
2018-09-21T12:53:09.364Z,552
2018-09-21T12:54:09.942Z,540
2018-09-21T12:55:10.520Z,528
2018-09-21T12:56:11.098Z,532
2018-09-21T12:57:11.674Z,540
2018-09-21T12:58:12.277Z,556
2018-09-21T12:59:12.837Z,560
2018-09-21T13:00:13.408Z,556
2018-09-21T13:01:13.987Z,584
2018-09-21T13:02:14.563Z,552
2018-09-21T13:03:15.144Z,552
2018-09-21T13:04:15.723Z,524
2018-09-21T13:05:16.301Z,520
2018-09-21T13:06:16.921Z,544
2018-09-21T13:07:17.460Z,560
2018-09-21T13:08:18.049Z,564
2018-09-21T13:09:18.627Z,572
2018-09-21T13:10:19.207Z,572
2018-09-21T13:11:19.787Z,536
2018-09-21T13:12:20.365Z,512
2018-09-21T13:13:20.944Z,524
2018-09-21T13:14:21.562Z,568
2018-09-21T13:15:22.303Z,660
2018-09-21T13:16:22.883Z,568
2018-09-21T13:17:23.462Z,548
2018-09-21T13:18:24.040Z,512
2018-09-21T13:19:24.619Z,544
2018-09-21T13:20:25.198Z,608
2018-09-21T13:21:25.790Z,528
2018-09-21T13:22:26.367Z,512
2018-09-21T13:23:26.960Z,488
2018-09-21T13:24:27.539Z,476
2018-09-21T13:25:28.123Z,500
2018-09-21T13:26:28.695Z,516
2018-09-21T13:27:29.274Z,528
2018-09-21T13:28:29.851Z,536
2018-09-21T13:29:30.428Z,564
2018-09-21T13:30:31.007Z,592
2018-09-21T13:31:31.600Z,612
2018-09-21T13:32:32.179Z,640
2018-09-21T13:33:32.758Z,668
2018-09-21T13:34:33.352Z,664
2018-09-21T13:35:33.933Z,664
2018-09-21T13:36:34.521Z,704
2018-09-21T13:37:35.100Z,668
2018-09-21T13:38:35.682Z,688
2018-09-21T13:39:36.275Z,676
2018-09-21T13:40:36.848Z,656
2018-09-21T13:41:37.426Z,636
2018-09-21T13:42:38.005Z,616
2018-09-21T13:43:38.582Z,604
2018-09-21T13:44:39.159Z,632
2018-09-21T13:45:39.739Z,680
2018-09-21T13:46:40.317Z,708
2018-09-21T13:47:40.895Z,876
2018-09-21T13:48:41.487Z,868
2018-09-21T13:49:42.069Z,688
2018-09-21T13:50:42.645Z,816
2018-09-21T13:51:43.259Z,632
2018-09-21T13:52:43.815Z,860
2018-09-21T13:53:44.394Z,696
2018-09-21T13:54:44.972Z,660
2018-09-21T13:55:45.552Z,768
2018-09-21T13:56:46.132Z,636
2018-09-21T13:57:46.709Z,744
2018-09-21T13:58:47.305Z,752
2018-09-21T13:59:47.894Z,744
2018-09-21T14:00:48.474Z,732
2018-09-21T14:01:49.066Z,728
2018-09-21T14:02:49.645Z,724
2018-09-21T14:03:50.224Z,720
2018-09-21T14:04:50.803Z,716
2018-09-21T14:05:51.396Z,720
2018-09-21T14:06:51.974Z,724
2018-09-21T14:07:52.555Z,748
2018-09-21T14:08:53.136Z,752
2018-09-21T14:09:53.712Z,744
2018-09-21T14:10:54.292Z,752
2018-09-21T14:11:54.872Z,752
2018-09-21T14:12:55.449Z,756
2018-09-21T14:13:56.029Z,756
2018-09-21T14:14:56.612Z,748
2018-09-21T14:15:57.186Z,760
2018-09-21T14:16:57.767Z,760
2018-09-21T14:17:58.345Z,756
2018-09-21T14:18:58.938Z,756
2018-09-21T14:19:59.516Z,760